Time;durP1;ratioP1;P1;durP2;ratioP2;P2;SDS_P1;SDS_P2;PMS_P1;PMS_P2;Temp;Humidity;BMP_temperature;BMP_pressure;BME280_temperature;BME280_humidity;BME280_pressure;Samples;Min_cycle;Max_cycle;Signal;HPM_P1;HPM_P2
2022/04/04 00:00:47;;;;;;;8.37;7.17;;;;;;;;;;5041338;28;20449;-86
2022/04/04 00:03:13;;;;;;;9.73;7.10;;;;;;;;;;5040730;28;20505;-87
2022/04/04 00:05:39;;;;;;;10.40;7.70;;;;;;;;;;5040012;28;20886;-86
2022/04/04 00:08:09;;;;;;;13.57;7.07;;;;;;;;;;5040013;28;20859;-87
2022/04/04 00:10:35;;;;;;;9.73;8.03;;;;;;;;;;5040018;28;20792;-87
2022/04/04 00:13:01;;;;;;;9.13;6.90;;;;;;;;;;5040655;28;20415;-88
2022/04/04 00:15:28;;;;;;;8.77;6.90;;;;;;;;;;5039859;28;20403;-86
2022/04/04 00:17:57;;;;;;;9.47;7.30;;;;;;;;;;5039686;28;20403;-87
2022/04/04 00:20:23;;;;;;;14.63;7.80;;;;;;;;;;5022420;28;20454;-87
2022/04/04 00:22:49;;;;;;;13.90;7.90;;;;;;;;;;5040714;28;20405;-87
2022/04/04 00:25:15;;;;;;;9.93;7.90;;;;;;;;;;5040478;28;20431;-86
2022/04/04 00:27:41;;;;;;;11.60;8.00;;;;;;;;;;5057035;28;20391;-86
2022/04/04 00:30:08;;;;;;;9.33;6.80;;;;;;;;;;5060682;28;20430;-86
2022/04/04 00:32:36;;;;;;;11.30;8.73;;;;;;;;;;5039297;28;20574;-86
2022/04/04 00:35:02;;;;;;;13.47;9.20;;;;;;;;;;5039082;28;20866;-86
2022/04/04 00:37:28;;;;;;;9.90;7.60;;;;;;;;;;5039531;28;20414;-86
2022/04/04 00:39:54;;;;;;;14.33;8.40;;;;;;;;;;5039071;28;20462;-86
2022/04/04 00:42:20;;;;;;;10.10;8.40;;;;;;;;;;5039340;28;20412;-87
2022/04/04 00:44:46;;;;;;;11.47;8.50;;;;;;;;;;5039906;28;20461;-87
2022/04/04 00:47:12;;;;;;;10.57;8.63;;;;;;;;;;5022515;28;20546;-87
2022/04/04 00:49:38;;;;;;;12.60;7.63;;;;;;;;;;5022319;28;20434;-87
2022/04/04 00:52:05;;;;;;;12.77;8.50;;;;;;;;;;5040303;28;20407;-87
2022/04/04 00:54:32;;;;;;;9.90;8.27;;;;;;;;;;5040041;28;20403;-87
2022/04/04 00:57:01;;;;;;;10.53;9.17;;;;;;;;;;5040100;28;20529;-87
2022/04/04 00:59:27;;;;;;;11.27;8.37;;;;;;;;;;5021547;28;21047;-87
2022/04/04 01:01:54;;;;;;;11.93;7.23;;;;;;;;;;5022149;28;20410;-88
2022/04/04 01:04:20;;;;;;;14.13;9.60;;;;;;;;;;5040059;28;20411;-86
2022/04/04 01:06:46;;;;;;;11.23;8.47;;;;;;;;;;5040255;28;20456;-88
2022/04/04 01:09:15;;;;;;;10.10;7.83;;;;;;;;;;5039748;28;20423;-87
2022/04/04 01:11:59;;;;;;;10.63;8.97;;;;;;;;;;5039802;28;20411;-87
2022/04/04 01:14:25;;;;;;;15.33;8.67;;;;;;;;;;5039999;28;20387;-87
2022/04/04 01:16:51;;;;;;;10.13;8.80;;;;;;;;;;5022261;28;20410;-86
2022/04/04 01:19:17;;;;;;;9.50;8.07;;;;;;;;;;5040113;28;20792;-86
2022/04/04 01:21:43;;;;;;;11.73;9.67;;;;;;;;;;5047795;28;20421;-86
2022/04/04 01:24:15;;;;;;;10.20;7.90;;;;;;;;;;5042024;28;20489;-85
2022/04/04 01:26:46;;;;;;;12.17;8.73;;;;;;;;;;5039156;28;20395;-87
2022/04/04 01:29:12;;;;;;;12.13;8.37;;;;;;;;;;5022894;28;20442;-87
2022/04/04 01:31:38;;;;;;;13.13;8.90;;;;;;;;;;5022405;28;20414;-87
2022/04/04 01:34:04;;;;;;;11.40;8.30;;;;;;;;;;5038317;28;20818;-86
2022/04/04 01:36:30;;;;;;;11.73;8.40;;;;;;;;;;5017034;28;20444;-86
2022/04/04 01:38:56;;;;;;;14.47;8.63;;;;;;;;;;5037255;28;20938;-86
2022/04/04 01:41:22;;;;;;;9.33;8.00;;;;;;;;;;5020367;28;20468;-87
2022/04/04 01:43:48;;;;;;;10.00;8.00;;;;;;;;;;5038268;28;20405;-86
2022/04/04 01:46:23;;;;;;;14.13;8.50;;;;;;;;;;5038721;28;20453;-86
2022/04/04 01:48:49;;;;;;;11.77;8.07;;;;;;;;;;5038537;28;20422;-87
2022/04/04 01:51:15;;;;;;;11.77;8.60;;;;;;;;;;5038647;28;20442;-85
2022/04/04 01:53:41;;;;;;;12.50;8.40;;;;;;;;;;5038983;28;20399;-86
2022/04/04 01:56:08;;;;;;;9.77;7.83;;;;;;;;;;5021298;28;20481;-87
2022/04/04 01:58:34;;;;;;;12.67;8.53;;;;;;;;;;5038745;28;20506;-87
2022/04/04 02:01:01;;;;;;;11.60;8.03;;;;;;;;;;5038821;28;20438;-86
2022/04/04 02:03:29;;;;;;;9.87;7.60;;;;;;;;;;5040059;28;20402;-87
2022/04/04 02:05:55;;;;;;;10.17;8.53;;;;;;;;;;5039221;28;20401;-87
2022/04/04 02:08:21;;;;;;;14.33;9.53;;;;;;;;;;5039429;28;20919;-86
2022/04/04 02:10:47;;;;;;;9.60;7.73;;;;;;;;;;5021503;28;20472;-86
2022/04/04 02:13:13;;;;;;;19.03;9.07;;;;;;;;;;5021825;28;20449;-87
2022/04/04 02:15:41;;;;;;;11.83;7.97;;;;;;;;;;5021438;28;20414;-86
2022/04/04 02:18:07;;;;;;;13.37;8.67;;;;;;;;;;5039290;28;20409;-86
2022/04/04 02:20:33;;;;;;;23.67;8.80;;;;;;;;;;5024023;28;20461;-86
2022/04/04 02:23:00;;;;;;;10.00;8.30;;;;;;;;;;5053805;28;20422;-85
2022/04/04 02:25:26;;;;;;;11.47;8.00;;;;;;;;;;5048057;28;20402;-87
2022/04/04 02:27:53;;;;;;;9.73;7.20;;;;;;;;;;5023630;28;20426;-87
2022/04/04 02:30:19;;;;;;;10.80;8.33;;;;;;;;;;5039879;28;20537;-86
2022/04/04 02:32:45;;;;;;;13.20;8.17;;;;;;;;;;5039810;28;20779;-87
2022/04/04 02:35:11;;;;;;;14.13;8.77;;;;;;;;;;5039361;28;20407;-87
2022/04/04 02:37:37;;;;;;;10.33;8.27;;;;;;;;;;5039676;28;20414;-86
2022/04/04 02:40:04;;;;;;;9.43;8.20;;;;;;;;;;5021950;28;20477;-87
2022/04/04 02:42:30;;;;;;;10.60;7.80;;;;;;;;;;5039222;28;20445;-86
2022/04/04 02:44:56;;;;;;;10.23;7.87;;;;;;;;;;5039099;28;20398;-86
2022/04/04 02:47:22;;;;;;;12.83;7.33;;;;;;;;;;5021928;28;20417;-87
2022/04/04 02:49:48;;;;;;;11.70;8.00;;;;;;;;;;5024058;28;20461;-85
2022/04/04 02:52:14;;;;;;;9.83;7.67;;;;;;;;;;5057591;28;20418;-86
2022/04/04 02:54:40;;;;;;;12.10;7.83;;;;;;;;;;5047586;28;20410;-86
2022/04/04 02:57:06;;;;;;;10.60;8.30;;;;;;;;;;5040548;28;20403;-86
2022/04/04 02:59:32;;;;;;;12.43;8.17;;;;;;;;;;5037874;28;20504;-86
2022/04/04 03:01:58;;;;;;;10.67;8.10;;;;;;;;;;5038401;28;20409;-86
2022/04/04 03:04:24;;;;;;;11.47;8.00;;;;;;;;;;5037166;28;20405;-86
2022/04/04 03:06:50;;;;;;;13.40;8.23;;;;;;;;;;5042353;28;20402;-87
2022/04/04 03:09:16;;;;;;;11.50;7.53;;;;;;;;;;5044388;28;20501;-85
2022/04/04 03:11:42;;;;;;;9.10;6.80;;;;;;;;;;5049141;28;20458;-84
2022/04/04 03:14:08;;;;;;;9.83;7.23;;;;;;;;;;5052301;28;20434;-85
2022/04/04 03:16:35;;;;;;;10.67;7.90;;;;;;;;;;5055209;28;20429;-87
2022/04/04 03:19:01;;;;;;;11.10;8.40;;;;;;;;;;5051822;28;20450;-87
2022/04/04 03:21:27;;;;;;;10.57;8.90;;;;;;;;;;5051134;28;20457;-86
2022/04/04 03:23:54;;;;;;;11.13;8.13;;;;;;;;;;5044192;28;20402;-87
2022/04/04 03:26:20;;;;;;;14.40;9.27;;;;;;;;;;5025060;28;20837;-87
2022/04/04 03:28:46;;;;;;;10.40;7.90;;;;;;;;;;5025369;28;20478;-87
2022/04/04 03:31:13;;;;;;;10.43;8.27;;;;;;;;;;5042798;28;20800;-87
2022/04/04 03:33:39;;;;;;;12.90;8.47;;;;;;;;;;5043184;28;20410;-87
2022/04/04 03:36:06;;;;;;;14.80;8.30;;;;;;;;;;5025069;28;20406;-86
2022/04/04 03:38:33;;;;;;;9.93;7.57;;;;;;;;;;5041511;28;20449;-86
2022/04/04 03:40:59;;;;;;;13.20;8.40;;;;;;;;;;5023700;28;20458;-86
2022/04/04 03:43:25;;;;;;;9.73;7.87;;;;;;;;;;5041584;28;20422;-85
2022/04/04 03:45:51;;;;;;;10.43;7.17;;;;;;;;;;5042199;28;20964;-86
2022/04/04 03:48:18;;;;;;;11.30;7.77;;;;;;;;;;5041404;28;20860;-86
2022/04/04 03:50:45;;;;;;;9.10;6.80;;;;;;;;;;5041626;28;20411;-87
2022/04/04 03:53:12;;;;;;;10.93;7.80;;;;;;;;;;5041456;28;20417;-87
2022/04/04 03:55:39;;;;;;;14.00;6.73;;;;;;;;;;5025395;28;20795;-87
2022/04/04 03:58:08;;;;;;;16.73;10.80;;;;;;;;;;5025194;28;20411;-87
2022/04/04 04:00:34;;;;;;;8.60;7.10;;;;;;;;;;5036404;28;20470;-87
2022/04/04 04:03:00;;;;;;;9.40;7.00;;;;;;;;;;5042241;28;20425;-87
2022/04/04 04:05:27;;;;;;;10.37;7.13;;;;;;;;;;5042365;28;20437;-86
2022/04/04 04:07:53;;;;;;;9.20;6.80;;;;;;;;;;5042493;28;20917;-86
2022/04/04 04:10:19;;;;;;;9.33;7.03;;;;;;;;;;5042036;28;20476;-86
2022/04/04 04:12:46;;;;;;;9.60;6.20;;;;;;;;;;5041992;28;20471;-86
2022/04/04 04:15:14;;;;;;;7.47;6.07;;;;;;;;;;5042008;28;20407;-86
2022/04/04 04:17:40;;;;;;;10.03;6.33;;;;;;;;;;5024221;28;20423;-86
2022/04/04 04:20:29;;;;;;;10.73;7.63;;;;;;;;;;5023824;28;20485;-86
2022/04/04 04:22:57;;;;;;;11.00;7.53;;;;;;;;;;5041923;28;20399;-86
2022/04/04 04:25:24;;;;;;;14.27;7.30;;;;;;;;;;5022757;28;20949;-86
2022/04/04 04:27:50;;;;;;;10.10;7.03;;;;;;;;;;5041731;28;20406;-87
2022/04/04 04:30:17;;;;;;;12.33;6.97;;;;;;;;;;5041290;28;20441;-87
2022/04/04 04:32:48;;;;;;;10.63;6.93;;;;;;;;;;5041969;28;20411;-85
2022/04/04 04:35:15;;;;;;;7.67;6.43;;;;;;;;;;5041527;28;20406;-87
2022/04/04 04:37:42;;;;;;;9.73;7.07;;;;;;;;;;5041145;28;20434;-85
2022/04/04 04:40:09;;;;;;;7.87;6.93;;;;;;;;;;5040794;28;20458;-87
2022/04/04 04:42:35;;;;;;;10.70;7.20;;;;;;;;;;5040557;28;20442;-87
2022/04/04 04:45:03;;;;;;;7.60;6.63;;;;;;;;;;5041652;28;20398;-86
2022/04/04 04:47:29;;;;;;;9.80;7.00;;;;;;;;;;5040786;28;20407;-87
2022/04/04 04:49:55;;;;;;;17.80;7.83;;;;;;;;;;5040699;28;20426;-86
2022/04/04 04:52:21;;;;;;;12.30;7.07;;;;;;;;;;5041371;28;20413;-86
2022/04/04 04:54:47;;;;;;;13.80;8.17;;;;;;;;;;5041143;28;20402;-86
2022/04/04 04:57:13;;;;;;;9.83;6.10;;;;;;;;;;5041573;28;20533;-86
2022/04/04 04:59:40;;;;;;;9.77;7.30;;;;;;;;;;5047156;28;20454;-86
2022/04/04 05:02:06;;;;;;;10.00;6.60;;;;;;;;;;5045276;28;20403;-86
2022/04/04 05:04:32;;;;;;;11.30;6.60;;;;;;;;;;5026361;28;20785;-87
2022/04/04 05:06:58;;;;;;;10.00;7.43;;;;;;;;;;5042545;28;20475;-86
2022/04/04 05:09:24;;;;;;;12.33;6.90;;;;;;;;;;5041644;28;21004;-87
2022/04/04 05:11:50;;;;;;;8.77;6.53;;;;;;;;;;5040961;28;20402;-87
2022/04/04 05:14:16;;;;;;;12.33;7.03;;;;;;;;;;5047825;28;20978;-87
2022/04/04 05:16:46;;;;;;;10.80;6.50;;;;;;;;;;5041874;28;20421;-86
2022/04/04 05:19:13;;;;;;;8.90;7.27;;;;;;;;;;5041304;28;20422;-87
2022/04/04 05:21:39;;;;;;;9.27;6.90;;;;;;;;;;5040472;28;20399;-87
2022/04/04 05:24:06;;;;;;;10.80;7.60;;;;;;;;;;5041008;28;20398;-86
2022/04/04 05:26:33;;;;;;;8.03;6.83;;;;;;;;;;5023383;28;20410;-86
2022/04/04 05:28:59;;;;;;;9.33;6.93;;;;;;;;;;5037017;23;20438;-80
2022/04/04 05:31:25;;;;;;;12.70;7.43;;;;;;;;;;5023252;28;20447;-79
2022/04/04 05:33:51;;;;;;;13.83;7.63;;;;;;;;;;5018815;28;20919;-80
2022/04/04 05:36:20;;;;;;;6.83;5.83;;;;;;;;;;5017850;28;20407;-80
2022/04/04 05:38:46;;;;;;;8.50;6.17;;;;;;;;;;5018909;28;20411;-80
2022/04/04 05:41:12;;;;;;;8.63;6.50;;;;;;;;;;5019424;28;20473;-80
2022/04/04 05:43:38;;;;;;;11.83;7.90;;;;;;;;;;5019235;28;20407;-80
2022/04/04 05:46:04;;;;;;;9.17;6.50;;;;;;;;;;5019023;28;20430;-80
2022/04/04 05:48:32;;;;;;;9.50;6.40;;;;;;;;;;5018567;28;20400;-80
2022/04/04 05:50:59;;;;;;;7.83;6.10;;;;;;;;;;5018303;28;20495;-80
2022/04/04 05:53:25;;;;;;;9.10;7.20;;;;;;;;;;5019319;28;20407;-80
2022/04/04 05:55:51;;;;;;;12.10;6.07;;;;;;;;;;5019589;28;20403;-80
2022/04/04 05:58:26;;;;;;;11.30;6.47;;;;;;;;;;5161813;27;20513;-79
2022/04/04 06:00:52;;;;;;;8.77;6.70;;;;;;;;;;5148385;27;20440;-79
2022/04/04 06:03:21;;;;;;;8.67;6.47;;;;;;;;;;5136118;28;20771;-80
2022/04/04 06:05:49;;;;;;;7.40;5.90;;;;;;;;;;5136475;28;20394;-80
2022/04/04 06:08:18;;;;;;;9.77;7.73;;;;;;;;;;5136140;28;20438;-80
2022/04/04 06:10:45;;;;;;;9.20;6.90;;;;;;;;;;5117953;28;20410;-80
2022/04/04 06:13:13;;;;;;;9.93;7.77;;;;;;;;;;5135583;28;20386;-79
2022/04/04 06:15:39;;;;;;;10.47;6.70;;;;;;;;;;5135280;28;20390;-80
2022/04/04 06:18:05;;;;;;;7.17;6.43;;;;;;;;;;5136278;28;20831;-79
2022/04/04 06:20:31;;;;;;;9.93;7.43;;;;;;;;;;5136209;27;20442;-80
2022/04/04 06:22:57;;;;;;;8.60;6.23;;;;;;;;;;5135633;28;20482;-80
2022/04/04 06:25:23;;;;;;;9.60;7.47;;;;;;;;;;5136035;28;20417;-80
2022/04/04 06:27:50;;;;;;;10.60;6.30;;;;;;;;;;5135774;28;20493;-80
2022/04/04 06:30:16;;;;;;;16.77;9.00;;;;;;;;;;5134862;27;20410;-80
2022/04/04 06:32:43;;;;;;;13.53;7.97;;;;;;;;;;5116993;28;20783;-80
2022/04/04 06:35:10;;;;;;;11.50;7.93;;;;;;;;;;5135003;28;20398;-80
2022/04/04 06:37:36;;;;;;;9.80;6.77;;;;;;;;;;5134228;28;20449;-80
2022/04/04 06:40:03;;;;;;;14.07;7.30;;;;;;;;;;5135912;27;20445;-80
2022/04/04 06:42:30;;;;;;;9.70;6.83;;;;;;;;;;5134940;28;20501;-80
2022/04/04 06:44:58;;;;;;;7.97;5.63;;;;;;;;;;5116265;28;20398;-80
2022/04/04 06:47:26;;;;;;;7.73;6.17;;;;;;;;;;5135042;28;20482;-80
2022/04/04 06:49:52;;;;;;;12.17;6.73;;;;;;;;;;5134816;27;20434;-80
2022/04/04 06:52:19;;;;;;;9.27;7.63;;;;;;;;;;5134183;28;20424;-80
2022/04/04 06:54:48;;;;;;;8.20;5.63;;;;;;;;;;5134870;28;20414;-80
2022/04/04 06:57:15;;;;;;;9.13;5.77;;;;;;;;;;5133888;28;20826;-79
2022/04/04 06:59:42;;;;;;;6.60;5.90;;;;;;;;;;5135174;28;20418;-80
2022/04/04 07:02:08;;;;;;;8.57;5.80;;;;;;;;;;5116689;28;20463;-80
2022/04/04 07:04:34;;;;;;;11.10;5.37;;;;;;;;;;5135697;28;20406;-80
2022/04/04 07:07:00;;;;;;;7.50;4.80;;;;;;;;;;5120898;28;20414;-81
2022/04/04 07:09:26;;;;;;;6.70;4.80;;;;;;;;;;5122815;28;20474;-81
2022/04/04 07:11:52;;;;;;;6.90;5.20;;;;;;;;;;5120426;28;20775;-80
2022/04/04 07:14:18;;;;;;;7.27;5.17;;;;;;;;;;5120995;28;20427;-80
2022/04/04 07:16:44;;;;;;;9.83;5.30;;;;;;;;;;5119973;28;20455;-79
2022/04/04 07:19:15;;;;;;;8.80;4.80;;;;;;;;;;5120064;28;20521;-79
2022/04/04 07:21:41;;;;;;;9.17;5.13;;;;;;;;;;5118561;28;20494;-79
2022/04/04 07:24:08;;;;;;;9.13;4.87;;;;;;;;;;5118350;28;20410;-78
2022/04/04 07:26:34;;;;;;;5.90;5.13;;;;;;;;;;5100964;28;20473;-79
2022/04/04 07:29:00;;;;;;;8.67;5.17;;;;;;;;;;5120532;28;20418;-80
2022/04/04 07:31:26;;;;;;;7.72;4.70;;;;;;;;;;5105591;28;20491;-81
2022/04/04 07:33:52;;;;;;;15.37;5.57;;;;;;;;;;5126366;28;20237;-80
2022/04/04 07:36:18;;;;;;;10.57;5.47;;;;;;;;;;5122658;28;20453;-80
2022/04/04 07:38:44;;;;;;;10.23;5.10;;;;;;;;;;5120711;28;20400;-81
2022/04/04 07:41:10;;;;;;;7.28;4.40;;;;;;;;;;5121328;27;20457;-81
2022/04/04 07:43:36;;;;;;;9.07;5.60;;;;;;;;;;5119564;28;20399;-81
2022/04/04 07:46:02;;;;;;;6.10;4.70;;;;;;;;;;5120028;28;20247;-80
2022/04/04 07:48:29;;;;;;;5.87;4.27;;;;;;;;;;5120465;28;20403;-80
2022/04/04 07:50:55;;;;;;;7.17;5.10;;;;;;;;;;5118894;28;20442;-79
2022/04/04 07:53:21;;;;;;;5.60;3.90;;;;;;;;;;5120800;28;20911;-81
2022/04/04 07:55:47;;;;;;;5.20;3.90;;;;;;;;;;5121906;28;20497;-80
2022/04/04 07:58:16;;;;;;;4.07;3.63;;;;;;;;;;5096183;28;21024;-81
2022/04/04 08:00:42;;;;;;;8.13;4.30;;;;;;;;;;5121862;28;20845;-80
2022/04/04 08:03:08;;;;;;;4.75;3.67;;;;;;;;;;5119802;28;20407;-80
2022/04/04 08:05:34;;;;;;;8.03;4.93;;;;;;;;;;5120416;28;20255;-83
2022/04/04 08:08:00;;;;;;;7.77;4.53;;;;;;;;;;5120630;28;20442;-81
2022/04/04 08:10:26;;;;;;;6.13;4.40;;;;;;;;;;5120626;28;20946;-82
2022/04/04 08:12:53;;;;;;;5.53;3.90;;;;;;;;;;5121435;28;20464;-82
2022/04/04 08:15:19;;;;;;;5.67;4.30;;;;;;;;;;5120095;28;20411;-81
2022/04/04 08:17:45;;;;;;;5.10;4.60;;;;;;;;;;5119685;28;20931;-82
2022/04/04 08:20:11;;;;;;;7.17;3.93;;;;;;;;;;5118137;28;20449;-82
2022/04/04 08:22:41;;;;;;;4.53;3.83;;;;;;;;;;5120368;28;20468;-82
2022/04/04 08:25:08;;;;;;;4.23;3.67;;;;;;;;;;5100693;28;20403;-81
2022/04/04 08:27:35;;;;;;;4.60;3.80;;;;;;;;;;5100748;28;20745;-81
2022/04/04 08:30:04;;;;;;;4.97;3.07;;;;;;;;;;5120330;28;20435;-80
2022/04/04 08:32:30;;;;;;;5.67;4.20;;;;;;;;;;5104338;28;20410;-80
2022/04/04 08:34:56;;;;;;;4.90;3.50;;;;;;;;;;5119394;28;20452;-79
2022/04/04 08:37:22;;;;;;;3.93;3.53;;;;;;;;;;5100729;28;20446;-80
2022/04/04 08:39:49;;;;;;;3.60;3.23;;;;;;;;;;5117745;28;20434;-80
2022/04/04 08:42:16;;;;;;;6.40;4.03;;;;;;;;;;5118559;28;20454;-81
2022/04/04 08:44:43;;;;;;;3.13;2.83;;;;;;;;;;5118917;28;20772;-81
2022/04/04 08:47:09;;;;;;;5.47;4.10;;;;;;;;;;5117302;28;20895;-81
2022/04/04 08:49:36;;;;;;;5.30;3.10;;;;;;;;;;5116538;28;20411;-79
2022/04/04 08:52:02;;;;;;;7.30;3.97;;;;;;;;;;5119242;28;20407;-80
2022/04/04 08:54:28;;;;;;;5.03;3.97;;;;;;;;;;5120221;28;20595;-81
2022/04/04 08:56:54;;;;;;;5.15;3.25;;;;;;;;;;5118055;28;20439;-80
2022/04/04 08:59:20;;;;;;;4.70;3.80;;;;;;;;;;5118589;28;20212;-80
2022/04/04 09:01:47;;;;;;;5.88;3.90;;;;;;;;;;5119554;28;20415;-78
2022/04/04 09:04:14;;;;;;;6.00;3.80;;;;;;;;;;5113703;28;20418;-81
2022/04/04 09:06:53;;;;;;;6.15;4.10;;;;;;;;;;5117229;28;20794;-81
2022/04/04 09:09:26;;;;;;;5.33;4.03;;;;;;;;;;5118002;28;20230;-80
2022/04/04 09:12:05;;;;;;;4.50;4.00;;;;;;;;;;5117724;28;20419;-80
2022/04/04 09:14:34;;;;;;;6.17;4.27;;;;;;;;;;5102803;28;20458;-80
2022/04/04 09:17:00;;;;;;;5.30;4.43;;;;;;;;;;5117446;28;20435;-80
2022/04/04 09:19:27;;;;;;;4.93;3.97;;;;;;;;;;5114272;28;20462;-80
2022/04/04 09:21:53;;;;;;;5.70;4.20;;;;;;;;;;5117634;28;20890;-81
2022/04/04 09:24:19;;;;;;;6.30;4.50;;;;;;;;;;5118850;28;20425;-80
2022/04/04 09:26:45;;;;;;;5.40;4.47;;;;;;;;;;5104204;28;20399;-82
2022/04/04 09:29:24;;;;;;;7.57;4.67;;;;;;;;;;5118132;28;20427;-82
2022/04/04 09:31:53;;;;;;;5.80;4.87;;;;;;;;;;5117920;28;20506;-81
2022/04/04 09:34:19;;;;;;;7.93;4.30;;;;;;;;;;5118235;28;20880;-80
2022/04/04 09:36:46;;;;;;;10.10;5.33;;;;;;;;;;5119026;28;20192;-80
2022/04/04 09:39:14;;;;;;;6.00;5.27;;;;;;;;;;5118504;28;20433;-82
2022/04/04 09:41:40;;;;;;;5.40;4.33;;;;;;;;;;5118468;28;20898;-81
2022/04/04 09:44:08;;;;;;;7.20;5.60;;;;;;;;;;5117374;28;20411;-81
2022/04/04 09:46:36;;;;;;;7.07;4.93;;;;;;;;;;5119070;28;20165;-80
2022/04/04 09:49:06;;;;;;;9.83;4.80;;;;;;;;;;5117539;28;20415;-81
2022/04/04 09:51:46;;;;;;;8.23;5.43;;;;;;;;;;5117339;28;20410;-82
2022/04/04 09:54:23;;;;;;;6.87;4.70;;;;;;;;;;5117512;28;20422;-80
2022/04/04 09:56:50;;;;;;;5.43;4.60;;;;;;;;;;5113759;28;20455;-80
2022/04/04 09:59:17;;;;;;;6.30;5.05;;;;;;;;;;5117367;28;20413;-80
2022/04/04 10:01:44;;;;;;;6.45;4.80;;;;;;;;;;5098283;28;20414;-80
2022/04/04 10:04:12;;;;;;;7.40;6.23;;;;;;;;;;5117160;28;20161;-81
2022/04/04 10:06:39;;;;;;;6.77;5.00;;;;;;;;;;5117323;28;20406;-81
2022/04/04 10:09:05;;;;;;;7.03;6.00;;;;;;;;;;5117009;28;20415;-79
2022/04/04 10:11:34;;;;;;;7.80;4.80;;;;;;;;;;5115310;28;20422;-79
2022/04/04 10:14:00;;;;;;;8.87;5.87;;;;;;;;;;5115569;28;20399;-79
2022/04/04 10:16:26;;;;;;;7.43;5.27;;;;;;;;;;5115575;28;20446;-79
2022/04/04 10:18:54;;;;;;;6.87;4.57;;;;;;;;;;5113486;28;20413;-82
2022/04/04 10:21:21;;;;;;;6.90;4.80;;;;;;;;;;5098271;28;20403;-80
2022/04/04 10:23:52;;;;;;;7.33;5.43;;;;;;;;;;5117171;28;20407;-78
2022/04/04 10:26:20;;;;;;;8.40;5.90;;;;;;;;;;5116179;28;20402;-79
2022/04/04 10:28:47;;;;;;;8.37;5.80;;;;;;;;;;5117448;28;20399;-80
2022/04/04 10:31:16;;;;;;;8.80;5.75;;;;;;;;;;5113941;28;20295;-81
2022/04/04 10:33:42;;;;;;;7.33;6.13;;;;;;;;;;5114120;28;20226;-81
2022/04/04 10:36:10;;;;;;;7.97;6.43;;;;;;;;;;5117520;28;20398;-80
2022/04/04 10:38:37;;;;;;;7.63;6.20;;;;;;;;;;5118179;28;20493;-81
2022/04/04 10:41:07;;;;;;;7.80;5.90;;;;;;;;;;5117954;28;20415;-81
2022/04/04 10:43:37;;;;;;;8.60;6.13;;;;;;;;;;5118949;28;20531;-79
2022/04/04 10:46:05;;;;;;;7.47;6.40;;;;;;;;;;5120348;28;20406;-80
2022/04/04 10:48:35;;;;;;;9.53;6.40;;;;;;;;;;5120599;28;20539;-80
2022/04/04 10:51:02;;;;;;;9.23;6.97;;;;;;;;;;5119873;28;20438;-81
2022/04/04 10:53:49;;;;;;;9.03;6.23;;;;;;;;;;5121124;28;20518;-79
2022/04/04 10:56:19;;;;;;;10.20;7.97;;;;;;;;;;5107074;28;20399;-79
2022/04/04 10:58:45;;;;;;;7.10;6.07;;;;;;;;;;5120864;28;20463;-80
2022/04/04 11:01:16;;;;;;;8.40;6.47;;;;;;;;;;5104670;28;20486;-80
2022/04/04 11:03:57;;;;;;;9.10;6.93;;;;;;;;;;5121036;28;20413;-80
2022/04/04 11:09:26;;;;;;;12.23;7.53;;;;;;;;;;5123062;28;20468;-80
2022/04/04 11:11:54;;;;;;;8.27;7.23;;;;;;;;;;5127320;28;20747;-80
2022/04/04 11:14:31;;;;;;;8.53;6.90;;;;;;;;;;5124101;28;20399;-79
2022/04/04 11:17:09;;;;;;;8.57;6.60;;;;;;;;;;5120431;27;20478;-80
2022/04/04 11:19:44;;;;;;;11.30;6.80;;;;;;;;;;5120666;28;20446;-81
2022/04/04 11:22:31;;;;;;;8.20;6.30;;;;;;;;;;5120571;28;20401;-80
2022/04/04 11:25:03;;;;;;;11.47;7.23;;;;;;;;;;5120261;28;20497;-81
2022/04/04 11:27:29;;;;;;;9.35;6.40;;;;;;;;;;5119279;28;20403;-80
2022/04/04 11:29:56;;;;;;;7.23;6.33;;;;;;;;;;5099280;28;20193;-80
2022/04/04 11:32:33;;;;;;;8.00;6.28;;;;;;;;;;5106827;28;20428;-79
2022/04/04 11:35:07;;;;;;;11.47;7.17;;;;;;;;;;5121051;28;20168;-79
2022/04/04 11:37:40;;;;;;;9.63;6.70;;;;;;;;;;5120377;28;20829;-81
2022/04/04 11:40:08;;;;;;;8.60;6.33;;;;;;;;;;5115690;28;20448;-80
2022/04/04 11:42:41;;;;;;;9.87;7.23;;;;;;;;;;5109593;28;20417;-80
2022/04/04 11:45:08;;;;;;;11.97;7.40;;;;;;;;;;5121095;28;20403;-78
2022/04/04 11:47:39;;;;;;;9.70;6.67;;;;;;;;;;5123466;28;20403;-79
2022/04/04 11:50:05;;;;;;;7.57;5.87;;;;;;;;;;5124492;28;20449;-80
2022/04/04 11:52:44;;;;;;;9.30;6.87;;;;;;;;;;5123178;28;20475;-80
2022/04/04 11:55:13;;;;;;;10.30;6.90;;;;;;;;;;5121116;28;20448;-80
2022/04/04 11:57:39;;;;;;;18.23;6.40;;;;;;;;;;5120097;28;20462;-81
2022/04/04 12:00:06;;;;;;;8.90;6.50;;;;;;;;;;5121619;28;20494;-80
2022/04/04 12:02:33;;;;;;;8.87;6.87;;;;;;;;;;5120683;28;20846;-80
2022/04/04 12:05:00;;;;;;;8.87;6.90;;;;;;;;;;5120074;28;20399;-80
2022/04/04 12:07:31;;;;;;;7.33;6.40;;;;;;;;;;5119905;28;20469;-79
2022/04/04 12:09:59;;;;;;;8.60;6.87;;;;;;;;;;5112345;28;20474;-81
2022/04/04 12:12:31;;;;;;;9.57;7.32;;;;;;;;;;5119520;28;20931;-80
2022/04/04 12:14:57;;;;;;;8.20;7.00;;;;;;;;;;5120096;28;20181;-80
2022/04/04 12:17:26;;;;;;;8.77;7.40;;;;;;;;;;5118812;28;20484;-82
2022/04/04 12:19:52;;;;;;;9.20;7.63;;;;;;;;;;5119147;28;20430;-81
2022/04/04 12:25:05;;;;;;;7.90;7.10;;;;;;;;;;5118596;28;20478;-79
2022/04/04 12:27:31;;;;;;;10.63;7.30;;;;;;;;;;5100692;28;20414;-82
2022/04/04 12:30:01;;;;;;;13.80;7.93;;;;;;;;;;5119588;28;20476;-81
2022/04/04 12:32:32;;;;;;;9.80;8.10;;;;;;;;;;5119296;28;20387;-80
2022/04/04 12:34:58;;;;;;;8.77;7.50;;;;;;;;;;5119350;28;20909;-80
2022/04/04 12:37:36;;;;;;;10.00;7.40;;;;;;;;;;5119611;28;20447;-80
2022/04/04 12:40:19;;;;;;;10.10;8.93;;;;;;;;;;5103424;28;20438;-81
2022/04/04 12:42:45;;;;;;;9.57;7.83;;;;;;;;;;5101306;28;20410;-81
2022/04/04 12:45:11;;;;;;;10.30;7.53;;;;;;;;;;5118274;28;20415;-79
2022/04/04 12:47:56;;;;;;;8.87;7.57;;;;;;;;;;5099293;28;20581;-80
2022/04/04 12:50:24;;;;;;;9.27;7.60;;;;;;;;;;5087050;28;20407;-81
2022/04/04 12:53:00;;;;;;;11.50;8.60;;;;;;;;;;5118087;28;20425;-81
2022/04/04 12:55:26;;;;;;;10.30;8.20;;;;;;;;;;5102337;28;20543;-81
2022/04/04 12:57:52;;;;;;;11.30;7.90;;;;;;;;;;5117668;28;20492;-81
2022/04/04 13:00:28;;;;;;;11.83;9.03;;;;;;;;;;5118768;28;20429;-81
2022/04/04 13:02:56;;;;;;;10.90;8.80;;;;;;;;;;5116819;28;20421;-82
2022/04/04 13:05:25;;;;;;;12.40;8.90;;;;;;;;;;5118067;28;20411;-81
2022/04/04 13:07:51;;;;;;;9.50;8.60;;;;;;;;;;5116606;28;20844;-81
2022/04/04 13:10:17;;;;;;;11.87;9.60;;;;;;;;;;5118460;28;20446;-80
2022/04/04 13:12:45;;;;;;;10.97;8.53;;;;;;;;;;5117523;28;20484;-82
2022/04/04 13:15:11;;;;;;;11.83;9.17;;;;;;;;;;5117446;28;20451;-82
2022/04/04 13:17:37;;;;;;;10.20;9.00;;;;;;;;;;5121754;28;20449;-84
2022/04/04 13:20:09;;;;;;;9.13;8.00;;;;;;;;;;5125801;28;20435;-83
2022/04/04 13:22:36;;;;;;;12.43;9.13;;;;;;;;;;5109075;28;20470;-83
2022/04/04 13:25:03;;;;;;;9.90;8.40;;;;;;;;;;5123903;28;20399;-81
2022/04/04 13:27:29;;;;;;;12.00;9.53;;;;;;;;;;5117532;28;20769;-79
2022/04/04 13:29:55;;;;;;;11.20;9.23;;;;;;;;;;5118171;28;20439;-82
2022/04/04 13:32:22;;;;;;;10.30;8.43;;;;;;;;;;5120293;28;20406;-81
2022/04/04 13:34:48;;;;;;;9.73;8.73;;;;;;;;;;5100914;28;20423;-81
2022/04/04 13:37:14;;;;;;;11.20;8.93;;;;;;;;;;5121095;28;20450;-81
2022/04/04 13:39:40;;;;;;;9.90;8.57;;;;;;;;;;5128117;28;20441;-81
2022/04/04 13:42:07;;;;;;;12.30;9.07;;;;;;;;;;5128262;28;20399;-82
2022/04/04 13:44:36;;;;;;;10.80;9.10;;;;;;;;;;5119299;28;20407;-82
2022/04/04 13:47:02;;;;;;;10.73;8.38;;;;;;;;;;5122692;28;20417;-84
2022/04/04 13:49:29;;;;;;;12.97;8.87;;;;;;;;;;5119696;28;20201;-83
2022/04/04 13:51:59;;;;;;;9.30;7.60;;;;;;;;;;5124426;28;20399;-82
2022/04/04 13:54:25;;;;;;;11.40;8.80;;;;;;;;;;5124626;28;20406;-83
2022/04/04 13:56:51;;;;;;;10.60;8.87;;;;;;;;;;5113328;28;20428;-83
2022/04/04 13:59:18;;;;;;;11.00;9.10;;;;;;;;;;5120230;28;20451;-82
2022/04/04 14:01:45;;;;;;;10.83;9.43;;;;;;;;;;5125249;28;20172;-82
2022/04/04 14:04:11;;;;;;;10.50;8.77;;;;;;;;;;5124361;28;20751;-83
2022/04/04 14:06:37;;;;;;;12.47;9.50;;;;;;;;;;5121468;28;20181;-82
2022/04/04 14:09:04;;;;;;;11.90;9.53;;;;;;;;;;5120893;28;20461;-81
2022/04/04 14:11:31;;;;;;;11.65;9.27;;;;;;;;;;5120628;28;20403;-82
2022/04/04 14:13:57;;;;;;;9.63;8.50;;;;;;;;;;5115476;28;20181;-82
2022/04/04 14:16:23;;;;;;;13.63;9.60;;;;;;;;;;5111619;28;20407;-81
2022/04/04 14:18:49;;;;;;;9.53;8.53;;;;;;;;;;5124274;28;20410;-81
2022/04/04 14:21:16;;;;;;;12.43;8.27;;;;;;;;;;5127581;28;20394;-81
2022/04/04 14:23:43;;;;;;;13.03;9.23;;;;;;;;;;5111735;28;20757;-80
2022/04/04 14:26:10;;;;;;;11.50;8.13;;;;;;;;;;5128935;28;20406;-82
2022/04/04 14:28:36;;;;;;;10.83;9.50;;;;;;;;;;5127493;28;20434;-81
2022/04/04 14:31:04;;;;;;;9.57;8.57;;;;;;;;;;5128214;28;20434;-82
2022/04/04 14:33:30;;;;;;;14.20;9.73;;;;;;;;;;5129693;28;20410;-82
2022/04/04 14:35:57;;;;;;;11.38;8.30;;;;;;;;;;5120047;28;20381;-83
2022/04/04 14:38:24;;;;;;;11.53;8.30;;;;;;;;;;5134012;28;20192;-82
2022/04/04 14:40:50;;;;;;;10.20;9.07;;;;;;;;;;5135980;28;20482;-82
2022/04/04 14:43:16;;;;;;;10.47;9.37;;;;;;;;;;5134557;28;20906;-82